Pike County-Hatcher Field (PBX)

 

Airport Diagram
No Airport Diagram Available
Current Weather/Forecast (LIFR Conditions)
METAR KPBX 270335Z AUTO 34005KT 5SM BR OVC004 12/12 A3022 RMK AO2 T01240124
TAF

Airport Information

All Charts
General
Chart Name View
TAKEOFF MINIMUMS
ALTERNATE MINIMUMS
TAKEOFF MINIMUMS
ALTERNATE MINIMUMS

Approaches
Chart Name Download
ILS OR LOC RWY 27
RNAV (GPS) RWY 09
RNAV (GPS) RWY 27
ILS OR LOC RWY 27
RNAV (GPS) RWY 09
RNAV (GPS) RWY 27


Airport Statistics
Departures Arrivals Local
All Collected Stats since June 2016: 5 5 0
2020 Stats: 2 2 0
October Stats: 0 0 0

Inbound Traffic (Arrivals) - 0

No inbound traffic.


Outbound Traffic (Departures) - 0

No outbound traffic.


Local Traffic (Pattern) - 0

No local traffic.